Time;durP1;ratioP1;P1;durP2;ratioP2;P2;SDS_P1;SDS_P2;PMS_P1;PMS_P2;Temp;Humidity;BMP_temperature;BMP_pressure;BME280_temperature;BME280_humidity;BME280_pressure;Samples;Min_cycle;Max_cycle;Signal;HPM_P1;HPM_P2
2023/08/16 00:01:42;;;;;;;4.15;1.70;;;15.70;99.90;;;;;;5095088;28;20044;-45
2023/08/16 00:04:08;;;;;;;4.53;1.77;;;15.70;99.90;;;;;;5093831;28;20119;-45
2023/08/16 00:06:33;;;;;;;4.85;1.77;;;15.70;99.90;;;;;;5095449;28;20513;-45
2023/08/16 00:08:59;;;;;;;5.45;1.65;;;15.70;99.90;;;;;;5096409;28;20045;-46
2023/08/16 00:11:27;;;;;;;3.45;1.80;;;15.70;99.90;;;;;;5096304;28;20429;-45
2023/08/16 00:13:53;;;;;;;3.50;1.60;;;15.70;99.90;;;;;;5094782;28;20407;-46
2023/08/16 00:16:19;;;;;;;3.20;1.50;;;15.80;99.90;;;;;;5096019;28;20051;-46
2023/08/16 00:18:44;;;;;;;2.70;1.33;;;15.70;99.90;;;;;;5096128;28;20052;-45
2023/08/16 00:21:10;;;;;;;2.47;1.20;;;15.70;99.90;;;;;;5096232;28;20131;-45
2023/08/16 00:23:36;;;;;;;3.27;1.20;;;15.70;99.90;;;;;;5094709;28;20039;-46
2023/08/16 00:26:01;;;;;;;2.65;0.80;;;15.60;99.90;;;;;;5095946;28;20279;-45
2023/08/16 00:28:27;;;;;;;1.33;0.47;;;15.60;99.90;;;;;;5095781;28;20048;-46
2023/08/16 00:30:53;;;;;;;0.90;0.45;;;15.50;99.90;;;;;;5095767;28;20058;-45
2023/08/16 00:33:20;;;;;;;0.80;0.50;;;15.50;99.90;;;;;;5095910;28;20040;-45
2023/08/16 00:35:46;;;;;;;0.90;0.43;;;15.50;99.90;;;;;;5095976;28;20051;-45
2023/08/16 00:38:12;;;;;;;1.45;0.60;;;15.50;99.90;;;;;;5095843;28;20048;-46
2023/08/16 00:40:38;;;;;;;3.33;1.10;;;15.50;99.90;;;;;;5095491;28;20131;-45
2023/08/16 00:43:04;;;;;;;3.10;1.20;;;15.60;99.90;;;;;;5095748;28;20143;-46
2023/08/16 00:45:30;;;;;;;3.20;1.20;;;15.60;99.90;;;;;;5095466;28;20040;-45
2023/08/16 00:47:56;;;;;;;4.72;1.65;;;15.60;99.90;;;;;;5095720;28;20368;-45
2023/08/16 00:50:24;;;;;;;4.20;2.15;;;15.70;99.90;;;;;;5094304;28;20131;-45
2023/08/16 00:52:51;;;;;;;5.07;2.47;;;15.70;99.90;;;;;;5095459;28;20052;-45
2023/08/16 00:55:17;;;;;;;6.03;2.70;;;15.70;99.90;;;;;;5095322;28;20392;-45
2023/08/16 00:57:43;;;;;;;7.90;2.92;;;15.70;99.90;;;;;;5095297;28;20054;-45
2023/08/16 01:00:10;;;;;;;5.50;2.63;;;15.70;99.90;;;;;;5095075;28;20048;-45
2023/08/16 01:02:36;;;;;;;6.57;2.92;;;15.70;99.90;;;;;;5095032;28;20436;-45
2023/08/16 01:05:02;;;;;;;4.88;2.28;;;15.70;99.90;;;;;;5095085;28;20086;-44
2023/08/16 01:07:28;;;;;;;;;;;15.80;99.90;;;;;;5095487;28;20059;-46
2023/08/16 01:09:53;;;;;;;4.20;2.00;;;15.70;99.90;;;;;;5077301;28;19923;-46
2023/08/16 01:12:47;;;;;;;5.32;2.00;;;15.80;99.90;;;;;;5095093;28;20494;-45
2023/08/16 01:15:21;;;;;;;4.35;2.05;;;15.70;99.90;;;;;;5094188;28;20056;-45
2023/08/16 01:17:47;;;;;;;5.20;2.22;;;15.70;99.90;;;;;;5095251;28;20047;-45
2023/08/16 01:20:15;;;;;;;4.45;1.75;;;15.70;99.90;;;;;;5094908;28;20473;-46
2023/08/16 01:23:03;;;;;;;6.10;1.55;;;15.70;99.90;;;;;;5094978;28;20145;-45
2023/08/16 01:26:07;;;;;;;4.03;2.13;;;15.60;99.90;;;;;;5094691;28;20513;-45
2023/08/16 01:28:35;;;;;;;4.10;1.85;;;15.60;99.90;;;;;;5094926;28;20048;-45
2023/08/16 01:31:05;;;;;;;3.35;1.90;;;15.60;99.90;;;;;;5094721;28;20044;-45
2023/08/16 01:33:31;;;;;;;3.47;1.75;;;15.60;99.90;;;;;;5094440;28;20036;-45
2023/08/16 01:35:57;;;;;;;3.83;1.90;;;15.60;99.90;;;;;;5094820;28;20055;-45
2023/08/16 01:38:24;;;;;;;2.95;0.90;;;15.60;99.90;;;;;;5094625;28;20048;-45
2023/08/16 01:41:10;;;;;;;2.45;1.23;;;15.60;99.90;;;;;;5094494;28;20126;-45
2023/08/16 01:43:36;;;;;;;3.47;1.60;;;15.60;99.90;;;;;;5094403;28;20044;-45
2023/08/16 01:46:03;;;;;;;;;;;15.60;99.90;;;;;;5093762;28;20035;-45
2023/08/16 01:48:31;;;;;;;3.95;1.70;;;15.60;99.90;;;;;;5094483;28;20010;-45
2023/08/16 01:50:57;;;;;;;3.40;1.80;;;15.60;99.90;;;;;;5094452;28;20082;-46
2023/08/16 01:53:22;;;;;;;3.90;1.77;;;15.60;99.90;;;;;;5094303;28;20054;-45
2023/08/16 01:55:48;;;;;;;3.97;1.97;;;15.60;99.90;;;;;;5094264;28;20055;-45
2023/08/16 01:58:14;;;;;;;6.37;2.40;;;15.70;99.90;;;;;;5093126;28;20278;-45
2023/08/16 02:00:39;;;;;;;4.78;2.22;;;15.60;99.90;;;;;;5092903;28;20286;-45
2023/08/16 02:03:05;;;;;;;4.10;2.30;;;15.60;99.90;;;;;;5093884;28;20048;-45
2023/08/16 02:05:30;;;;;;;5.07;2.42;;;15.60;99.90;;;;;;5094144;28;20087;-45
2023/08/16 02:07:56;;;;;;;4.93;2.03;;;15.60;99.90;;;;;;5093995;28;20483;-45
2023/08/16 02:10:22;;;;;;;4.45;2.05;;;15.60;99.90;;;;;;5094011;28;20124;-45
2023/08/16 02:12:47;;;;;;;5.05;2.60;;;15.60;99.90;;;;;;5093118;28;20044;-45
2023/08/16 02:15:13;;;;;;;5.25;2.17;;;15.60;99.90;;;;;;5093915;28;20545;-45
2023/08/16 02:17:39;;;;;;;5.32;2.10;;;15.60;99.90;;;;;;5093972;28;20449;-45
2023/08/16 02:20:06;;;;;;;3.07;1.80;;;15.60;99.90;;;;;;5094012;28;20047;-46
2023/08/16 02:22:31;;;;;;;4.25;2.08;;;15.50;99.90;;;;;;5093881;28;20271;-45
2023/08/16 02:24:57;;;;;;;3.78;1.92;;;15.50;99.90;;;;;;5093851;28;20051;-45
2023/08/16 02:27:23;;;;;;;4.35;2.15;;;15.50;99.90;;;;;;5093178;28;20101;-45
2023/08/16 02:29:51;;;;;;;4.05;1.70;;;15.50;99.90;;;;;;5093764;28;20127;-46
2023/08/16 02:32:16;;;;;;;2.67;1.30;;;15.50;99.90;;;;;;5094483;28;20048;-45
2023/08/16 02:34:42;;;;;;;3.80;1.70;;;15.50;99.90;;;;;;5093880;28;20047;-45
2023/08/16 02:37:08;;;;;;;4.67;2.23;;;15.50;99.90;;;;;;5092821;28;20091;-45
2023/08/16 02:39:34;;;;;;;3.75;1.95;;;15.50;99.90;;;;;;5093954;28;20489;-45
2023/08/16 02:42:01;;;;;;;6.47;2.17;;;15.50;99.90;;;;;;5093663;28;20131;-45
2023/08/16 02:44:27;;;;;;;4.13;1.98;;;15.50;99.90;;;;;;5093400;28;20048;-45
2023/08/16 02:46:52;;;;;;;4.82;2.55;;;15.50;99.90;;;;;;5093675;28;20044;-45
2023/08/16 02:49:18;;;;;;;5.65;2.17;;;15.50;99.90;;;;;;5093661;28;20055;-45
2023/08/16 02:51:44;;;;;;;4.53;2.15;;;15.50;99.90;;;;;;5093600;28;20040;-45
2023/08/16 02:54:09;;;;;;;3.95;2.13;;;15.40;99.90;;;;;;5093588;28;20040;-44
2023/08/16 02:56:35;;;;;;;3.72;1.58;;;15.40;99.90;;;;;;5093355;28;20044;-44
2023/08/16 02:59:01;;;;;;;4.75;2.28;;;15.40;99.90;;;;;;5093526;28;20480;-45
2023/08/16 03:01:26;;;;;;;7.22;2.55;;;15.30;99.90;;;;;;5093547;28;20044;-45
2023/08/16 03:03:52;;;;;;;5.28;2.80;;;15.30;99.90;;;;;;5093465;28;20479;-44
2023/08/16 03:06:18;;;;;;;5.32;2.80;;;15.30;99.90;;;;;;5093522;28;20044;-45
2023/08/16 03:08:43;;;;;;;5.70;2.30;;;15.20;99.90;;;;;;5093366;28;20052;-45
2023/08/16 03:11:10;;;;;;;4.28;2.17;;;15.20;99.90;;;;;;5092335;28;20048;-45
2023/08/16 03:13:36;;;;;;;5.63;3.00;;;15.10;99.90;;;;;;5093209;28;20123;-45
2023/08/16 03:16:02;;;;;;;7.45;3.40;;;15.10;99.90;;;;;;5093407;28;20131;-45
2023/08/16 03:18:27;;;;;;;6.63;3.28;;;15.10;99.90;;;;;;5093402;28;20104;-45
2023/08/16 03:20:53;;;;;;;6.40;3.27;;;15.10;99.90;;;;;;5093397;28;20055;-45
2023/08/16 03:23:19;;;;;;;7.13;3.33;;;15.10;99.90;;;;;;5093238;28;20282;-45
2023/08/16 03:25:44;;;;;;;5.70;3.03;;;15.20;99.90;;;;;;5092190;28;20803;-45
2023/08/16 03:28:10;;;;;;;5.53;3.28;;;15.20;99.90;;;;;;5093123;28;20080;-45
2023/08/16 03:30:36;;;;;;;6.37;3.43;;;15.20;99.90;;;;;;5093358;28;20048;-45
2023/08/16 03:33:01;;;;;;;5.77;3.17;;;15.30;99.90;;;;;;5093294;28;20289;-45
2023/08/16 03:35:27;;;;;;;6.85;3.42;;;15.20;99.90;;;;;;5093141;28;20054;-45
2023/08/16 03:37:53;;;;;;;5.97;3.42;;;15.30;99.90;;;;;;5093332;28;20059;-45
2023/08/16 03:40:18;;;;;;;7.43;3.40;;;15.30;99.90;;;;;;5096669;28;20048;-45
2023/08/16 03:42:44;;;;;;;6.07;3.30;;;15.20;99.90;;;;;;5096401;28;20052;-44
2023/08/16 03:45:10;;;;;;;5.75;2.90;;;15.20;99.90;;;;;;5095586;28;20145;-45
2023/08/16 03:47:35;;;;;;;5.93;3.05;;;15.10;99.90;;;;;;5097020;28;20399;-45
2023/08/16 03:50:01;;;;;;;5.43;2.70;;;15.10;99.90;;;;;;5096674;28;20040;-44
2023/08/16 03:52:27;;;;;;;5.65;2.75;;;15.10;99.90;;;;;;5096638;28;20075;-45
2023/08/16 03:54:53;;;;;;;7.68;2.92;;;15.00;99.90;;;;;;5096490;28;20080;-45
2023/08/16 03:57:20;;;;;;;;;;;15.00;99.90;;;;;;5095691;28;20414;-45
2023/08/16 03:59:46;;;;;;;5.60;2.75;;;15.00;99.90;;;;;;5096921;28;20260;-45
2023/08/16 04:02:12;;;;;;;4.55;2.00;;;15.00;99.90;;;;;;5096528;28;20055;-45
2023/08/16 04:04:37;;;;;;;5.57;2.78;;;14.90;99.90;;;;;;5096256;28;20119;-44
2023/08/16 04:07:03;;;;;;;4.20;2.00;;;14.90;99.90;;;;;;5096348;28;20063;-45
2023/08/16 04:09:29;;;;;;;4.40;2.30;;;14.90;99.90;;;;;;5096174;28;20290;-45
2023/08/16 04:11:54;;;;;;;5.50;2.17;;;14.80;99.90;;;;;;5096083;28;20075;-45
2023/08/16 04:14:20;;;;;;;5.80;2.92;;;14.80;99.90;;;;;;5096014;28;20040;-44
2023/08/16 04:16:46;;;;;;;5.53;3.20;;;14.80;99.90;;;;;;5096228;28;20101;-45
2023/08/16 04:19:11;;;;;;;4.50;2.80;;;14.70;99.90;;;;;;5095969;28;20342;-45
2023/08/16 04:21:38;;;;;;;7.50;2.80;;;14.80;99.90;;;;;;5096191;28;20044;-45
2023/08/16 04:24:04;;;;;;;;;;;14.80;99.90;;;;;;5096161;28;20298;-45
2023/08/16 04:26:29;;;;;;;4.90;2.88;;;14.80;99.90;;;;;;5095904;28;19920;-45
2023/08/16 04:28:55;;;;;;;6.50;2.70;;;14.80;99.90;;;;;;5095786;28;20040;-45
2023/08/16 04:31:21;;;;;;;5.60;2.97;;;14.80;99.90;;;;;;5096333;28;20407;-45
2023/08/16 04:33:46;;;;;;;5.07;2.63;;;14.80;99.90;;;;;;5095915;28;20286;-46
2023/08/16 04:36:12;;;;;;;6.72;2.38;;;14.80;99.90;;;;;;5096087;28;20380;-45
2023/08/16 04:38:38;;;;;;;5.13;2.50;;;14.80;99.90;;;;;;5095684;28;20153;-45
2023/08/16 04:41:03;;;;;;;4.53;2.30;;;14.80;99.90;;;;;;5077564;28;20055;-45
2023/08/16 04:43:29;;;;;;;5.73;2.97;;;14.80;99.90;;;;;;5095727;28;20642;-45
2023/08/16 04:45:55;;;;;;;6.13;2.67;;;14.80;99.90;;;;;;5095910;28;20044;-45
2023/08/16 04:48:20;;;;;;;4.40;1.87;;;14.80;99.90;;;;;;5095781;28;20101;-45
2023/08/16 04:50:46;;;;;;;3.22;1.20;;;14.80;99.90;;;;;;5094755;28;20289;-45
2023/08/16 04:53:11;;;;;;;2.00;1.00;;;14.70;99.90;;;;;;5095515;28;20117;-45
2023/08/16 04:55:38;;;;;;;3.43;1.00;;;14.80;99.90;;;;;;5095410;28;20373;-45
2023/08/16 04:58:03;;;;;;;2.05;1.10;;;14.70;99.90;;;;;;5077684;28;20087;-45
2023/08/16 05:00:29;;;;;;;2.63;1.10;;;14.70;99.90;;;;;;5095406;28;20204;-45
2023/08/16 05:02:55;;;;;;;2.45;1.20;;;14.70;99.90;;;;;;5095367;28;20048;-45
2023/08/16 05:05:20;;;;;;;2.50;1.33;;;14.70;99.90;;;;;;5093947;28;20050;-45
2023/08/16 05:07:46;;;;;;;3.27;1.17;;;14.70;99.90;;;;;;5095162;28;20274;-45
2023/08/16 05:10:12;;;;;;;5.77;1.60;;;14.80;99.90;;;;;;5095198;28;20667;-45
2023/08/16 05:12:38;;;;;;;2.45;1.20;;;14.80;99.90;;;;;;5094939;28;20052;-45
2023/08/16 05:15:04;;;;;;;3.20;1.20;;;14.80;99.90;;;;;;5095600;28;20406;-45
2023/08/16 05:17:29;;;;;;;2.70;1.30;;;14.80;99.90;;;;;;5095049;28;20044;-45
2023/08/16 05:19:55;;;;;;;3.47;1.60;;;14.90;99.90;;;;;;5095356;28;20436;-45
2023/08/16 05:22:24;;;;;;;3.53;1.13;;;14.90;99.90;;;;;;5094910;28;20507;-46
2023/08/16 05:24:50;;;;;;;2.85;1.48;;;14.90;99.90;;;;;;5093637;28;20105;-45
2023/08/16 05:27:15;;;;;;;4.22;1.98;;;15.00;99.90;;;;;;5094635;28;20529;-45
2023/08/16 05:29:42;;;;;;;4.87;2.00;;;15.00;99.90;;;;;;5094966;28;20048;-45
2023/08/16 05:32:08;;;;;;;4.07;2.20;;;15.10;99.90;;;;;;5094970;28;20411;-46
2023/08/16 05:34:34;;;;;;;4.47;1.90;;;15.10;99.90;;;;;;5094744;28;20550;-46
2023/08/16 05:37:00;;;;;;;6.45;2.35;;;15.20;99.90;;;;;;5094673;28;20376;-45
2023/08/16 05:39:26;;;;;;;5.88;3.15;;;15.20;99.90;;;;;;5094381;28;20058;-48
2023/08/16 05:41:52;;;;;;;5.47;2.50;;;15.30;99.90;;;;;;5094433;28;20394;-45
2023/08/16 05:44:17;;;;;;;7.82;3.03;;;15.40;99.90;;;;;;5094826;28;20051;-46
2023/08/16 05:46:43;;;;;;;7.53;3.70;;;15.40;99.90;;;;;;5094523;28;20079;-46
2023/08/16 05:49:09;;;;;;;6.82;3.58;;;15.50;99.90;;;;;;5094505;28;20052;-45
2023/08/16 05:51:35;;;;;;;7.20;3.50;;;15.50;99.90;;;;;;5094300;28;20044;-46
2023/08/16 05:54:04;;;;;;;5.45;2.90;;;15.60;99.90;;;;;;5094275;28;20274;-46
2023/08/16 05:56:30;;;;;;;7.15;3.72;;;15.70;99.90;;;;;;5094052;28;20056;-46
2023/08/16 05:58:55;;;;;;;7.47;3.35;;;15.80;99.90;;;;;;5093298;28;20051;-46
2023/08/16 06:01:21;;;;;;;9.27;3.58;;;15.90;99.90;;;;;;5093954;28;20055;-46
2023/08/16 06:03:47;;;;;;;6.72;3.45;;;16.10;99.90;;;;;;5093080;28;20051;-46
2023/08/16 06:06:13;;;;;;;9.27;4.43;;;16.30;99.90;;;;;;5094022;28;20051;-46
2023/08/16 06:08:38;;;;;;;9.07;4.05;;;16.60;99.90;;;;;;5093877;28;20051;-46
2023/08/16 06:11:04;;;;;;;8.02;4.38;;;17.30;99.90;;;;;;5093749;28;20055;-47
2023/08/16 06:13:30;;;;;;;8.90;3.78;;;17.90;99.90;;;;;;5093056;28;20052;-46
2023/08/16 06:15:56;;;;;;;8.65;4.32;;;18.60;99.90;;;;;;5093850;28;20051;-46
2023/08/16 06:18:21;;;;;;;7.20;3.80;;;19.00;99.90;;;;;;5093844;28;20043;-45
2023/08/16 06:20:47;;;;;;;6.93;4.05;;;19.50;99.90;;;;;;5093846;28;20137;-46
2023/08/16 06:23:13;;;;;;;7.40;3.80;;;20.00;99.90;;;;;;5092696;28;20063;-47
2023/08/16 06:25:38;;;;;;;6.25;3.65;;;20.40;99.90;;;;;;5093730;28;20073;-46
2023/08/16 06:28:04;;;;;;;5.78;3.35;;;20.30;99.90;;;;;;5093832;28;20043;-46
2023/08/16 06:30:30;;;;;;;;;;;20.00;99.90;;;;;;5094483;28;20058;-46
2023/08/16 06:32:56;;;;;;;6.30;3.63;;;19.60;99.90;;;;;;5093725;28;20015;-46
2023/08/16 06:35:22;;;;;;;6.53;3.15;;;19.30;99.90;;;;;;5093752;28;20043;-46
2023/08/16 06:37:47;;;;;;;7.47;2.92;;;19.10;99.90;;;;;;5093771;28;20043;-46
2023/08/16 06:40:13;;;;;;;6.40;3.53;;;18.90;99.90;;;;;;5093648;28;20526;-46
2023/08/16 06:42:39;;;;;;;5.88;2.83;;;18.80;99.90;;;;;;5093930;28;20063;-45
2023/08/16 06:45:06;;;;;;;;;;;18.70;99.90;;;;;;5094023;28;20487;-45
2023/08/16 06:47:31;;;;;;;6.10;2.83;;;18.60;99.90;;;;;;5093888;28;19932;-46
2023/08/16 06:49:57;;;;;;;5.50;2.97;;;18.50;99.90;;;;;;5093544;28;20044;-45
2023/08/16 06:52:23;;;;;;;5.93;3.05;;;18.40;99.90;;;;;;5093600;28;20197;-45
2023/08/16 06:54:48;;;;;;;5.75;2.85;;;18.30;99.90;;;;;;5093563;28;20040;-45
2023/08/16 06:57:14;;;;;;;6.47;3.28;;;18.20;99.90;;;;;;5093614;28;20040;-45
2023/08/16 06:59:41;;;;;;;6.03;2.97;;;18.20;99.90;;;;;;5093635;28;20130;-45
2023/08/16 07:02:10;;;;;;;7.10;3.28;;;18.20;99.90;;;;;;5093551;28;20123;-56
2023/08/16 07:04:38;;;;;;;5.97;3.25;;;18.20;99.90;;;;;;5093413;28;20048;-45
2023/08/16 07:07:07;;;;;;;5.72;2.45;;;18.40;99.90;;;;;;5093753;28;20051;-45
2023/08/16 07:09:33;;;;;;;4.82;2.22;;;18.60;99.90;;;;;;5093416;28;20050;-45
2023/08/16 07:11:59;;;;;;;4.55;2.25;;;18.60;99.90;;;;;;5093470;28;20123;-44
2023/08/16 07:14:24;;;;;;;3.40;1.70;;;18.60;99.90;;;;;;5095485;28;20047;-46
2023/08/16 07:16:51;;;;;;;6.55;1.95;;;18.60;99.90;;;;;;5097245;28;20185;-44
2023/08/16 07:19:17;;;;;;;2.17;1.30;;;18.50;99.90;;;;;;5097310;28;20070;-45
2023/08/16 07:21:43;;;;;;;;;;;18.50;99.90;;;;;;5097595;28;20052;-45
2023/08/16 07:24:09;;;;;;;4.38;1.60;;;18.50;99.90;;;;;;5097087;28;19920;-45
2023/08/16 07:26:34;;;;;;;6.18;2.22;;;18.50;99.90;;;;;;5097232;28;20051;-45
2023/08/16 07:29:00;;;;;;;3.10;1.40;;;18.40;99.90;;;;;;5097173;28;20123;-44
2023/08/16 07:31:26;;;;;;;3.85;1.45;;;18.40;99.90;;;;;;5097096;28;20101;-44
2023/08/16 07:33:52;;;;;;;2.33;1.00;;;18.40;99.90;;;;;;5097083;28;20040;-45
2023/08/16 07:36:17;;;;;;;2.75;1.35;;;18.40;99.90;;;;;;5096819;28;20499;-45
2023/08/16 07:38:45;;;;;;;2.80;1.10;;;18.40;99.90;;;;;;5095978;28;20059;-45
2023/08/16 07:41:11;;;;;;;3.13;0.80;;;18.40;99.90;;;;;;5096731;28;20407;-44
2023/08/16 07:43:37;;;;;;;4.85;0.70;;;18.40;99.90;;;;;;5096137;28;20044;-45
2023/08/16 07:46:02;;;;;;;2.90;1.10;;;18.40;99.90;;;;;;5096668;28;20044;-45
2023/08/16 07:48:28;;;;;;;3.08;1.40;;;18.30;99.90;;;;;;5096795;28;20040;-44
2023/08/16 07:50:54;;;;;;;3.50;1.10;;;18.30;99.90;;;;;;5096538;28;20097;-44
2023/08/16 07:53:22;;;;;;;3.65;1.10;;;18.30;99.90;;;;;;5096657;28;20101;-45
2023/08/16 07:55:48;;;;;;;3.17;1.80;;;18.30;99.90;;;;;;5095536;28;20044;-45
2023/08/16 07:58:15;;;;;;;2.45;0.73;;;18.30;99.90;;;;;;5096632;28;20188;-45
2023/08/16 08:00:42;;;;;;;2.67;0.75;;;18.30;99.90;;;;;;5096481;28;20052;-44
2023/08/16 08:03:09;;;;;;;3.20;0.90;;;18.30;99.90;;;;;;5096386;28;20122;-44
2023/08/16 08:05:35;;;;;;;3.45;0.88;;;18.40;99.90;;;;;;5096247;28;20087;-44
2023/08/16 08:08:01;;;;;;;2.45;0.80;;;18.40;99.90;;;;;;5096433;28;20123;-44
2023/08/16 08:10:30;;;;;;;3.40;0.70;;;18.40;99.90;;;;;;5096326;28;20039;-44
2023/08/16 08:12:55;;;;;;;21.65;9.60;;;18.50;99.90;;;;;;5096175;28;20052;-46
2023/08/16 08:15:21;;;;;;;4.28;1.75;;;18.50;99.90;;;;;;5096186;28;20073;-44
2023/08/16 08:17:47;;;;;;;6.20;1.77;;;18.50;99.90;;;;;;5096113;28;20052;-45
2023/08/16 08:20:14;;;;;;;3.40;1.33;;;18.60;99.90;;;;;;5095869;28;20403;-44
2023/08/16 08:22:40;;;;;;;2.85;1.08;;;18.60;99.90;;;;;;5096175;28;20454;-45
2023/08/16 08:25:07;;;;;;;2.45;1.10;;;18.70;99.90;;;;;;5094841;28;20040;-46
2023/08/16 08:27:33;;;;;;;4.07;1.15;;;18.70;99.90;;;;;;5096038;28;20055;-45
2023/08/16 08:29:59;;;;;;;3.45;1.23;;;18.80;99.90;;;;;;5094945;28;20048;-45
2023/08/16 08:32:24;;;;;;;4.32;1.40;;;18.80;99.90;;;;;;5095871;28;20083;-45
2023/08/16 08:34:50;;;;;;;4.53;1.42;;;18.90;99.90;;;;;;5094439;28;20048;-44
2023/08/16 08:37:16;;;;;;;2.55;1.13;;;18.90;99.90;;;;;;5094837;28;20046;-45
2023/08/16 08:39:41;;;;;;;2.97;1.08;;;19.00;99.90;;;;;;5096048;28;20503;-45
2023/08/16 08:42:09;;;;;;;2.72;1.08;;;19.00;99.90;;;;;;5095544;28;20055;-45
2023/08/16 08:44:37;;;;;;;2.97;1.10;;;19.00;99.90;;;;;;5095588;28;20041;-45
2023/08/16 08:47:05;;;;;;;2.88;1.38;;;19.00;99.90;;;;;;5094672;28;20052;-45
2023/08/16 08:49:34;;;;;;;4.07;1.50;;;19.00;99.90;;;;;;5095473;28;20426;-45
2023/08/16 08:52:04;;;;;;;4.07;1.80;;;19.00;99.90;;;;;;5095668;28;20044;-46
2023/08/16 08:54:31;;;;;;;3.47;1.40;;;19.10;99.90;;;;;;5095853;28;20051;-45
2023/08/16 08:56:59;;;;;;;5.55;1.40;;;19.10;99.90;;;;;;5095439;28;20040;-45
2023/08/16 08:59:27;;;;;;;5.10;1.35;;;19.20;99.90;;;;;;5095478;28;20048;-45
2023/08/16 09:01:53;;;;;;;3.92;1.75;;;19.20;99.90;;;;;;5095048;28;20047;-44
2023/08/16 09:04:20;;;;;;;3.38;1.95;;;19.20;99.90;;;;;;5093964;28;20048;-45
2023/08/16 09:06:46;;;;;;;4.57;2.00;;;19.20;99.90;;;;;;5094283;28;20048;-45
2023/08/16 09:09:12;;;;;;;;;;;19.20;99.90;;;;;;5095651;28;20051;-45
2023/08/16 09:11:38;;;;;;;5.22;2.13;;;19.30;99.90;;;;;;5095140;28;19920;-45
2023/08/16 09:14:04;;;;;;;5.20;1.60;;;19.30;99.90;;;;;;5095116;28;20230;-45
2023/08/16 09:16:30;;;;;;;2.92;1.52;;;19.30;99.90;;;;;;5094771;28;20106;-45
2023/08/16 09:18:56;;;;;;;7.85;1.60;;;19.40;99.90;;;;;;5094052;28;20048;-46
2023/08/16 09:21:27;;;;;;;6.88;2.13;;;19.40;99.90;;;;;;5094928;28;20079;-45
2023/08/16 09:23:59;;;;;;;3.92;1.70;;;19.40;99.90;;;;;;5094688;28;20487;-45
2023/08/16 09:26:29;;;;;;;3.78;1.40;;;19.40;99.90;;;;;;5093792;28;20112;-45
2023/08/16 09:29:06;;;;;;;4.00;1.15;;;19.50;99.90;;;;;;5094801;28;20044;-45
2023/08/16 09:31:39;;;;;;;2.55;1.30;;;19.50;99.90;;;;;;5095171;28;20048;-45
2023/08/16 09:34:06;;;;;;;3.38;1.10;;;19.60;99.90;;;;;;5094729;28;20441;-46
2023/08/16 09:36:34;;;;;;;3.58;1.42;;;19.60;99.90;;;;;;5094435;28;20044;-46
2023/08/16 09:39:09;;;;;;;3.92;1.48;;;19.70;99.90;;;;;;5094582;28;20048;-47
2023/08/16 09:41:36;;;;;;;3.80;1.23;;;19.70;99.90;;;;;;5094474;28;20052;-45
2023/08/16 09:44:07;;;;;;;3.28;1.40;;;19.70;99.90;;;;;;5094553;28;20048;-45
2023/08/16 09:46:34;;;;;;;2.97;1.00;;;19.70;99.90;;;;;;5094669;28;20483;-46
2023/08/16 09:49:07;;;;;;;4.00;1.10;;;19.70;99.90;;;;;;5094700;28;20048;-46
2023/08/16 09:51:34;;;;;;;4.88;1.95;;;19.80;99.90;;;;;;5092987;28;20101;-45
2023/08/16 09:54:02;;;;;;;2.83;0.93;;;19.80;99.90;;;;;;5093006;28;20048;-45
2023/08/16 09:56:32;;;;;;;3.35;1.40;;;19.80;99.90;;;;;;5094490;28;20044;-45
2023/08/16 09:59:00;;;;;;;3.08;1.27;;;19.90;99.90;;;;;;5094547;28;20043;-46
2023/08/16 10:01:26;;;;;;;2.60;1.05;;;19.90;99.90;;;;;;5094240;28;20089;-45
2023/08/16 10:03:53;;;;;;;3.67;1.35;;;20.00;99.90;;;;;;5093903;28;20036;-45
2023/08/16 10:06:23;;;;;;;2.80;1.30;;;20.10;99.90;;;;;;5093990;28;20044;-46
2023/08/16 10:08:52;;;;;;;3.55;1.38;;;20.10;99.90;;;;;;5093934;28;20043;-46
2023/08/16 10:11:22;;;;;;;2.75;1.20;;;20.20;99.90;;;;;;5094199;28;20127;-46
2023/08/16 10:13:48;;;;;;;4.18;1.58;;;20.30;99.90;;;;;;5093327;28;20048;-46
2023/08/16 10:16:15;;;;;;;3.75;1.40;;;20.30;99.90;;;;;;5092932;28;20129;-46
2023/08/16 10:18:44;;;;;;;3.40;1.55;;;20.40;99.90;;;;;;5093845;28;20044;-45
2023/08/16 10:21:15;;;;;;;3.58;1.38;;;20.40;99.90;;;;;;5093762;28;20044;-45
2023/08/16 10:23:41;;;;;;;2.80;1.65;;;20.30;99.90;;;;;;5093968;28;20036;-46
2023/08/16 10:26:17;;;;;;;2.80;1.50;;;20.20;99.90;;;;;;5093925;28;20044;-45
2023/08/16 10:28:54;;;;;;;2.93;1.20;;;20.30;99.90;;;;;;5094224;28;20124;-45
2023/08/16 10:31:28;;;;;;;3.20;1.45;;;20.30;99.90;;;;;;5093838;28;20048;-45
2023/08/16 10:33:57;;;;;;;2.67;1.15;;;20.40;99.90;;;;;;5093656;28;20044;-45
2023/08/16 10:36:23;;;;;;;3.30;1.48;;;20.50;99.90;;;;;;5093865;28;20044;-46
2023/08/16 10:38:56;;;;;;;3.58;1.25;;;20.60;99.90;;;;;;5093771;28;20506;-45
2023/08/16 10:41:22;;;;;;;3.97;1.52;;;20.80;99.90;;;;;;5092668;28;20053;-45
2023/08/16 10:43:53;;;;;;;3.17;1.30;;;20.90;99.90;;;;;;5093730;28;20044;-45
2023/08/16 10:46:30;;;;;;;3.00;1.45;;;21.10;99.90;;;;;;5093731;28;20055;-46
2023/08/16 10:48:59;;;;;;;2.75;1.50;;;21.20;99.90;;;;;;5095725;28;20487;-45
2023/08/16 10:51:25;;;;;;;2.97;1.55;;;21.40;99.90;;;;;;5097869;28;20556;-45
2023/08/16 10:53:51;;;;;;;4.75;1.80;;;21.50;99.90;;;;;;5079880;28;20047;-45
2023/08/16 10:56:19;;;;;;;5.07;1.70;;;21.40;99.90;;;;;;5097691;28;20176;-47
2023/08/16 10:58:52;;;;;;;5.35;1.35;;;21.30;99.90;;;;;;5097533;28;20062;-45
2023/08/16 11:01:29;;;;;;;4.68;1.23;;;21.10;99.90;;;;;;5097704;28;20051;-46
2023/08/16 11:04:00;;;;;;;3.03;1.50;;;21.20;99.90;;;;;;5096611;28;20043;-45
2023/08/16 11:06:26;;;;;;;2.80;1.30;;;21.20;99.90;;;;;;5097822;28;20043;-46
2023/08/16 11:08:52;;;;;;;4.28;1.70;;;21.20;99.90;;;;;;5097387;28;20047;-45
2023/08/16 11:11:18;;;;;;;;;;;21.40;99.90;;;;;;5097755;28;20531;-46
2023/08/16 11:13:44;;;;;;;2.10;1.20;;;21.40;99.90;;;;;;5097950;28;19964;-46
2023/08/16 11:16:11;;;;;;;3.00;1.10;;;21.30;99.90;;;;;;5097454;28;20483;-46
2023/08/16 11:18:40;;;;;;;2.92;1.20;;;21.20;99.90;;;;;;5097374;28;20059;-46
2023/08/16 11:21:08;;;;;;;2.25;0.95;;;21.10;99.90;;;;;;5097102;28;20513;-46
2023/08/16 11:23:39;;;;;;;4.07;1.27;;;21.00;99.90;;;;;;5097019;28;20499;-47
2023/08/16 11:26:07;;;;;;;3.80;1.40;;;21.00;99.90;;;;;;5095948;28;20047;-46
2023/08/16 11:28:34;;;;;;;2.28;1.10;;;21.20;99.90;;;;;;5097236;28;20044;-46
2023/08/16 11:31:05;;;;;;;1.98;1.05;;;21.40;99.90;;;;;;5097167;28;20088;-49
2023/08/16 11:33:42;;;;;;;4.82;1.42;;;21.50;99.90;;;;;;5097001;28;20086;-46
2023/08/16 11:36:09;;;;;;;4.53;1.90;;;21.70;99.90;;;;;;5096005;28;20548;-46
2023/08/16 11:38:35;;;;;;;4.90;1.70;;;21.70;99.90;;;;;;5096714;28;20036;-46
2023/08/16 11:41:02;;;;;;;2.90;1.10;;;21.60;99.90;;;;;;5096759;28;20043;-46
2023/08/16 11:43:30;;;;;;;2.42;1.15;;;21.40;99.90;;;;;;5096805;28;20048;-47
2023/08/16 11:46:01;;;;;;;3.20;1.27;;;21.30;99.90;;;;;;5097065;28;20384;-46
2023/08/16 11:48:29;;;;;;;3.45;1.20;;;21.20;99.90;;;;;;5096828;28;20047;-46
2023/08/16 11:50:56;;;;;;;3.03;1.30;;;21.30;99.90;;;;;;5095589;28;20048;-46
2023/08/16 11:53:33;;;;;;;2.75;1.15;;;21.40;99.90;;;;;;5096729;28;20048;-46
2023/08/16 11:56:08;;;;;;;2.97;1.13;;;21.70;99.90;;;;;;5097005;28;20403;-47
2023/08/16 11:58:47;;;;;;;2.08;0.93;;;21.90;99.90;;;;;;5096561;28;20059;-45
2023/08/16 12:01:21;;;;;;;2.70;1.20;;;22.10;99.90;;;;;;5096597;28;20052;-47
2023/08/16 12:03:46;;;;;;;2.25;1.10;;;22.20;99.90;;;;;;5096500;28;20048;-46
2023/08/16 12:06:13;;;;;;;3.40;0.98;;;22.40;99.90;;;;;;5096472;28;20043;-45
2023/08/16 12:08:50;;;;;;;2.78;1.13;;;22.50;99.90;;;;;;5095493;28;20135;-46
2023/08/16 12:11:32;;;;;;;3.92;1.00;;;22.70;99.90;;;;;;5096159;28;20047;-46
2023/08/16 12:13:59;;;;;;;4.38;1.65;;;22.60;99.90;;;;;;5096112;28;20112;-46
2023/08/16 12:16:26;;;;;;;3.70;1.02;;;22.50;99.90;;;;;;5096852;28;20048;-46
2023/08/16 12:18:52;;;;;;;2.75;1.20;;;22.40;99.90;;;;;;5095483;28;20110;-46
2023/08/16 12:21:17;;;;;;;2.03;0.80;;;22.40;99.90;;;;;;5096432;28;20047;-46
2023/08/16 12:23:43;;;;;;;1.30;0.50;;;22.50;99.90;;;;;;5095106;28;20055;-46
2023/08/16 12:26:09;;;;;;;0.98;0.60;;;22.60;99.90;;;;;;5096082;28;20044;-46
2023/08/16 12:28:35;;;;;;;1.30;0.70;;;22.70;99.90;;;;;;5095907;28;20141;-46
2023/08/16 12:31:00;;;;;;;2.63;0.77;;;22.70;99.90;;;;;;5096044;28;20476;-46
2023/08/16 12:33:26;;;;;;;1.38;0.70;;;22.60;99.90;;;;;;5095937;28;20131;-46
2023/08/16 12:35:53;;;;;;;2.25;0.60;;;22.50;99.90;;;;;;5095835;28;20079;-47
2023/08/16 12:38:19;;;;;;;1.58;0.63;;;22.60;99.90;;;;;;5095833;28;20048;-46
2023/08/16 12:40:45;;;;;;;2.05;0.70;;;22.70;99.90;;;;;;5095649;28;20055;-46
2023/08/16 12:43:11;;;;;;;1.85;0.60;;;23.00;99.90;;;;;;5095777;28;20394;-46
2023/08/16 12:45:40;;;;;;;;;;;23.20;99.90;;;;;;5096090;28;20098;-46
2023/08/16 12:48:06;;;;;;;2.90;0.68;;;23.40;99.90;;;;;;5096106;28;19920;-46
2023/08/16 12:50:31;;;;;;;;;;;23.50;99.90;;;;;;5095917;28;20047;-46